sensor_id;sensor_type;location;lat;lon;timestamp;P1;durP1;ratioP1;P2;durP2;ratioP2
7983;SDS011;4037;47.980;10.172;2023-02-26T00:00:11;4.30;;;3.50;;
7983;SDS011;4037;47.980;10.172;2023-02-26T00:02:39;9.00;;;5.13;;
7983;SDS011;4037;47.980;10.172;2023-02-26T00:05:05;10.77;;;3.53;;
7983;SDS011;4037;47.980;10.172;2023-02-26T00:07:31;4.80;;;3.83;;
7983;SDS011;4037;47.980;10.172;2023-02-26T00:09:57;8.97;;;5.10;;
7983;SDS011;4037;47.980;10.172;2023-02-26T00:12:25;4.90;;;4.20;;
7983;SDS011;4037;47.980;10.172;2023-02-26T00:14:51;7.80;;;4.60;;
7983;SDS011;4037;47.980;10.172;2023-02-26T00:19:43;6.30;;;3.93;;
7983;SDS011;4037;47.980;10.172;2023-02-26T00:22:09;7.53;;;4.20;;
7983;SDS011;4037;47.980;10.172;2023-02-26T00:24:35;7.13;;;4.33;;
7983;SDS011;4037;47.980;10.172;2023-02-26T00:27:01;5.53;;;3.00;;
7983;SDS011;4037;47.980;10.172;2023-02-26T00:29:27;7.87;;;3.80;;
7983;SDS011;4037;47.980;10.172;2023-02-26T00:31:54;4.67;;;2.83;;
7983;SDS011;4037;47.980;10.172;2023-02-26T00:34:20;5.20;;;3.13;;
7983;SDS011;4037;47.980;10.172;2023-02-26T00:42:06;5.87;;;3.87;;
7983;SDS011;4037;47.980;10.172;2023-02-26T00:44:32;3.67;;;3.03;;
7983;SDS011;4037;47.980;10.172;2023-02-26T00:47:08;3.77;;;2.77;;
7983;SDS011;4037;47.980;10.172;2023-02-26T00:52:26;5.33;;;3.50;;
7983;SDS011;4037;47.980;10.172;2023-02-26T00:54:52;5.63;;;3.50;;
7983;SDS011;4037;47.980;10.172;2023-02-26T00:57:18;4.87;;;2.80;;
7983;SDS011;4037;47.980;10.172;2023-02-26T00:59:45;4.20;;;2.93;;
7983;SDS011;4037;47.980;10.172;2023-02-26T01:02:11;3.13;;;2.57;;
7983;SDS011;4037;47.980;10.172;2023-02-26T01:04:37;4.93;;;2.67;;
7983;SDS011;4037;47.980;10.172;2023-02-26T01:07:03;3.57;;;2.93;;
7983;SDS011;4037;47.980;10.172;2023-02-26T01:09:31;6.27;;;3.13;;
7983;SDS011;4037;47.980;10.172;2023-02-26T01:12:02;7.80;;;3.47;;
7983;SDS011;4037;47.980;10.172;2023-02-26T01:14:28;4.60;;;2.60;;
7983;SDS011;4037;47.980;10.172;2023-02-26T01:17:01;4.77;;;3.00;;
7983;SDS011;4037;47.980;10.172;2023-02-26T01:19:30;3.23;;;2.80;;
7983;SDS011;4037;47.980;10.172;2023-02-26T01:22:03;3.87;;;2.87;;
7983;SDS011;4037;47.980;10.172;2023-02-26T01:24:31;3.07;;;2.70;;
7983;SDS011;4037;47.980;10.172;2023-02-26T01:26:59;5.97;;;3.17;;
7983;SDS011;4037;47.980;10.172;2023-02-26T01:29:25;4.93;;;3.00;;
7983;SDS011;4037;47.980;10.172;2023-02-26T01:31:53;8.33;;;4.10;;
7983;SDS011;4037;47.980;10.172;2023-02-26T01:37:13;4.03;;;2.90;;
7983;SDS011;4037;47.980;10.172;2023-02-26T01:39:46;7.17;;;3.27;;
7983;SDS011;4037;47.980;10.172;2023-02-26T01:42:19;3.47;;;3.00;;
7983;SDS011;4037;47.980;10.172;2023-02-26T01:49:38;3.77;;;2.60;;
7983;SDS011;4037;47.980;10.172;2023-02-26T01:52:05;3.97;;;3.23;;
7983;SDS011;4037;47.980;10.172;2023-02-26T01:54:33;6.07;;;3.57;;
7983;SDS011;4037;47.980;10.172;2023-02-26T01:57:06;3.43;;;3.13;;
7983;SDS011;4037;47.980;10.172;2023-02-26T01:59:34;4.07;;;2.63;;
7983;SDS011;4037;47.980;10.172;2023-02-26T02:02:01;3.67;;;3.17;;
7983;SDS011;4037;47.980;10.172;2023-02-26T02:04:28;3.40;;;3.10;;
7983;SDS011;4037;47.980;10.172;2023-02-26T02:06:56;4.17;;;3.20;;
7983;SDS011;4037;47.980;10.172;2023-02-26T02:09:22;3.80;;;2.47;;
7983;SDS011;4037;47.980;10.172;2023-02-26T02:12:03;3.23;;;2.90;;
7983;SDS011;4037;47.980;10.172;2023-02-26T02:19:48;3.90;;;3.27;;
7983;SDS011;4037;47.980;10.172;2023-02-26T02:22:32;4.63;;;3.40;;
7983;SDS011;4037;47.980;10.172;2023-02-26T02:29:53;3.43;;;2.67;;
7983;SDS011;4037;47.980;10.172;2023-02-26T02:32:35;3.37;;;3.03;;
7983;SDS011;4037;47.980;10.172;2023-02-26T02:35:03;3.27;;;2.90;;
7983;SDS011;4037;47.980;10.172;2023-02-26T02:39:59;3.07;;;2.30;;
7983;SDS011;4037;47.980;10.172;2023-02-26T02:42:33;3.83;;;2.60;;
7983;SDS011;4037;47.980;10.172;2023-02-26T02:45:08;2.40;;;2.20;;
7983;SDS011;4037;47.980;10.172;2023-02-26T02:47:37;3.53;;;2.17;;
7983;SDS011;4037;47.980;10.172;2023-02-26T02:52:41;2.60;;;2.40;;
7983;SDS011;4037;47.980;10.172;2023-02-26T02:55:11;2.40;;;2.20;;
7983;SDS011;4037;47.980;10.172;2023-02-26T02:57:43;3.80;;;2.47;;
7983;SDS011;4037;47.980;10.172;2023-02-26T03:00:11;3.33;;;2.23;;
7983;SDS011;4037;47.980;10.172;2023-02-26T03:05:20;3.83;;;2.17;;
7983;SDS011;4037;47.980;10.172;2023-02-26T03:07:49;3.80;;;2.27;;
7983;SDS011;4037;47.980;10.172;2023-02-26T03:10:17;2.30;;;2.10;;
7983;SDS011;4037;47.980;10.172;2023-02-26T03:12:43;2.10;;;1.90;;
7983;SDS011;4037;47.980;10.172;2023-02-26T03:15:10;3.33;;;2.30;;
7983;SDS011;4037;47.980;10.172;2023-02-26T03:18:39;3.03;;;1.90;;
7983;SDS011;4037;47.980;10.172;2023-02-26T03:20:35;3.73;;;2.00;;
7983;SDS011;4037;47.980;10.172;2023-02-26T03:23:07;3.30;;;2.27;;
7983;SDS011;4037;47.980;10.172;2023-02-26T03:25:44;2.97;;;2.20;;
7983;SDS011;4037;47.980;10.172;2023-02-26T03:35:49;4.67;;;2.20;;
7983;SDS011;4037;47.980;10.172;2023-02-26T03:38:24;3.40;;;2.60;;
7983;SDS011;4037;47.980;10.172;2023-02-26T03:40:54;3.87;;;2.30;;
7983;SDS011;4037;47.980;10.172;2023-02-26T03:46:31;3.60;;;2.70;;
7983;SDS011;4037;47.980;10.172;2023-02-26T03:49:00;2.67;;;2.40;;
7983;SDS011;4037;47.980;10.172;2023-02-26T03:51:27;5.30;;;2.47;;
7983;SDS011;4037;47.980;10.172;2023-02-26T03:53:59;5.43;;;2.83;;
7983;SDS011;4037;47.980;10.172;2023-02-26T03:56:29;2.93;;;2.67;;
7983;SDS011;4037;47.980;10.172;2023-02-26T03:58:56;3.70;;;2.77;;
7983;SDS011;4037;47.980;10.172;2023-02-26T04:01:22;5.83;;;2.43;;
7983;SDS011;4037;47.980;10.172;2023-02-26T04:04:04;2.63;;;2.43;;
7983;SDS011;4037;47.980;10.172;2023-02-26T04:06:32;4.10;;;2.30;;
7983;SDS011;4037;47.980;10.172;2023-02-26T04:08:59;3.00;;;2.60;;
7983;SDS011;4037;47.980;10.172;2023-02-26T04:11:25;5.40;;;3.13;;
7983;SDS011;4037;47.980;10.172;2023-02-26T04:13:52;6.07;;;2.67;;
7983;SDS011;4037;47.980;10.172;2023-02-26T04:16:18;3.03;;;2.73;;
7983;SDS011;4037;47.980;10.172;2023-02-26T04:18:44;4.10;;;2.97;;
7983;SDS011;4037;47.980;10.172;2023-02-26T04:21:14;3.40;;;2.63;;
7983;SDS011;4037;47.980;10.172;2023-02-26T04:23:41;5.33;;;2.90;;
7983;SDS011;4037;47.980;10.172;2023-02-26T04:26:07;3.60;;;2.93;;
7983;SDS011;4037;47.980;10.172;2023-02-26T04:28:33;4.43;;;2.83;;
7983;SDS011;4037;47.980;10.172;2023-02-26T04:31:01;6.23;;;3.03;;
7983;SDS011;4037;47.980;10.172;2023-02-26T04:33:27;4.70;;;2.80;;
7983;SDS011;4037;47.980;10.172;2023-02-26T04:35:53;5.93;;;3.10;;
7983;SDS011;4037;47.980;10.172;2023-02-26T04:38:19;4.17;;;2.70;;
7983;SDS011;4037;47.980;10.172;2023-02-26T04:40:45;5.70;;;2.43;;
7983;SDS011;4037;47.980;10.172;2023-02-26T04:43:12;3.73;;;2.60;;
7983;SDS011;4037;47.980;10.172;2023-02-26T04:45:38;4.43;;;2.87;;
7983;SDS011;4037;47.980;10.172;2023-02-26T04:48:04;4.97;;;2.83;;
7983;SDS011;4037;47.980;10.172;2023-02-26T04:50:30;3.17;;;2.90;;
7983;SDS011;4037;47.980;10.172;2023-02-26T04:52:56;5.10;;;3.20;;
7983;SDS011;4037;47.980;10.172;2023-02-26T04:55:22;3.07;;;2.77;;
7983;SDS011;4037;47.980;10.172;2023-02-26T04:57:48;8.33;;;2.90;;
7983;SDS011;4037;47.980;10.172;2023-02-26T05:00:14;3.77;;;2.77;;
7983;SDS011;4037;47.980;10.172;2023-02-26T05:02:40;5.53;;;3.40;;
7983;SDS011;4037;47.980;10.172;2023-02-26T05:05:06;7.83;;;3.40;;
7983;SDS011;4037;47.980;10.172;2023-02-26T05:07:33;4.70;;;3.30;;
7983;SDS011;4037;47.980;10.172;2023-02-26T05:09:58;3.63;;;3.03;;
7983;SDS011;4037;47.980;10.172;2023-02-26T05:12:24;3.33;;;3.03;;
7983;SDS011;4037;47.980;10.172;2023-02-26T05:14:51;4.50;;;3.10;;
7983;SDS011;4037;47.980;10.172;2023-02-26T05:17:16;4.03;;;3.57;;
7983;SDS011;4037;47.980;10.172;2023-02-26T05:19:42;4.00;;;3.07;;
7983;SDS011;4037;47.980;10.172;2023-02-26T05:22:08;4.47;;;3.20;;
7983;SDS011;4037;47.980;10.172;2023-02-26T05:24:34;4.20;;;2.37;;
7983;SDS011;4037;47.980;10.172;2023-02-26T05:27:00;5.03;;;3.90;;
7983;SDS011;4037;47.980;10.172;2023-02-26T05:29:26;5.80;;;3.30;;
7983;SDS011;4037;47.980;10.172;2023-02-26T05:31:52;4.23;;;2.83;;
7983;SDS011;4037;47.980;10.172;2023-02-26T05:34:18;4.27;;;3.00;;
7983;SDS011;4037;47.980;10.172;2023-02-26T05:36:44;3.60;;;3.00;;
7983;SDS011;4037;47.980;10.172;2023-02-26T05:39:10;5.53;;;3.63;;
7983;SDS011;4037;47.980;10.172;2023-02-26T05:41:37;4.83;;;3.20;;
7983;SDS011;4037;47.980;10.172;2023-02-26T05:44:02;3.10;;;2.80;;
7983;SDS011;4037;47.980;10.172;2023-02-26T05:46:29;3.67;;;3.03;;
7983;SDS011;4037;47.980;10.172;2023-02-26T05:48:55;5.37;;;3.03;;
7983;SDS011;4037;47.980;10.172;2023-02-26T05:51:21;3.33;;;2.93;;
7983;SDS011;4037;47.980;10.172;2023-02-26T05:53:46;5.07;;;3.10;;
7983;SDS011;4037;47.980;10.172;2023-02-26T05:56:12;3.90;;;2.90;;
7983;SDS011;4037;47.980;10.172;2023-02-26T05:58:38;4.83;;;2.83;;
7983;SDS011;4037;47.980;10.172;2023-02-26T06:01:05;3.03;;;2.53;;
7983;SDS011;4037;47.980;10.172;2023-02-26T06:03:31;6.03;;;2.90;;
7983;SDS011;4037;47.980;10.172;2023-02-26T06:05:57;4.50;;;2.70;;
7983;SDS011;4037;47.980;10.172;2023-02-26T06:08:23;6.67;;;2.97;;
7983;SDS011;4037;47.980;10.172;2023-02-26T06:10:49;4.60;;;3.03;;
7983;SDS011;4037;47.980;10.172;2023-02-26T06:13:16;4.57;;;2.53;;
7983;SDS011;4037;47.980;10.172;2023-02-26T06:15:42;5.83;;;2.90;;
7983;SDS011;4037;47.980;10.172;2023-02-26T06:18:08;5.13;;;2.70;;
7983;SDS011;4037;47.980;10.172;2023-02-26T06:20:35;4.47;;;2.67;;
7983;SDS011;4037;47.980;10.172;2023-02-26T06:23:01;3.67;;;2.50;;
7983;SDS011;4037;47.980;10.172;2023-02-26T06:25:27;2.57;;;2.37;;
7983;SDS011;4037;47.980;10.172;2023-02-26T06:27:53;2.77;;;2.57;;
7983;SDS011;4037;47.980;10.172;2023-02-26T06:30:19;6.03;;;2.70;;
7983;SDS011;4037;47.980;10.172;2023-02-26T06:32:47;2.93;;;2.53;;
7983;SDS011;4037;47.980;10.172;2023-02-26T06:35:14;4.13;;;2.60;;
7983;SDS011;4037;47.980;10.172;2023-02-26T06:37:40;3.87;;;2.30;;
7983;SDS011;4037;47.980;10.172;2023-02-26T06:40:06;6.30;;;2.37;;
7983;SDS011;4037;47.980;10.172;2023-02-26T06:42:34;3.90;;;2.67;;
7983;SDS011;4037;47.980;10.172;2023-02-26T06:45:00;3.60;;;2.97;;
7983;SDS011;4037;47.980;10.172;2023-02-26T06:47:26;3.67;;;2.37;;
7983;SDS011;4037;47.980;10.172;2023-02-26T06:49:52;3.97;;;2.70;;
7983;SDS011;4037;47.980;10.172;2023-02-26T06:52:18;3.73;;;3.10;;
7983;SDS011;4037;47.980;10.172;2023-02-26T06:54:44;4.20;;;3.43;;
7983;SDS011;4037;47.980;10.172;2023-02-26T06:57:10;5.23;;;3.03;;
7983;SDS011;4037;47.980;10.172;2023-02-26T06:59:37;4.53;;;2.70;;
7983;SDS011;4037;47.980;10.172;2023-02-26T07:02:03;4.77;;;2.57;;
7983;SDS011;4037;47.980;10.172;2023-02-26T07:04:29;4.33;;;2.43;;
7983;SDS011;4037;47.980;10.172;2023-02-26T07:06:55;3.47;;;2.57;;
7983;SDS011;4037;47.980;10.172;2023-02-26T07:09:21;2.73;;;2.53;;
7983;SDS011;4037;47.980;10.172;2023-02-26T07:11:47;4.67;;;3.00;;
7983;SDS011;4037;47.980;10.172;2023-02-26T07:14:13;3.30;;;2.57;;
7983;SDS011;4037;47.980;10.172;2023-02-26T07:16:39;4.50;;;2.60;;
7983;SDS011;4037;47.980;10.172;2023-02-26T07:19:05;6.00;;;3.03;;
7983;SDS011;4037;47.980;10.172;2023-02-26T07:21:31;3.80;;;2.57;;
7983;SDS011;4037;47.980;10.172;2023-02-26T07:23:57;5.30;;;3.57;;
7983;SDS011;4037;47.980;10.172;2023-02-26T07:26:23;5.97;;;3.10;;
7983;SDS011;4037;47.980;10.172;2023-02-26T07:28:49;9.37;;;4.30;;
7983;SDS011;4037;47.980;10.172;2023-02-26T07:31:15;4.57;;;3.23;;
7983;SDS011;4037;47.980;10.172;2023-02-26T07:33:41;9.67;;;5.70;;
7983;SDS011;4037;47.980;10.172;2023-02-26T07:36:07;8.63;;;5.80;;
7983;SDS011;4037;47.980;10.172;2023-02-26T07:38:33;8.40;;;4.10;;
7983;SDS011;4037;47.980;10.172;2023-02-26T07:40:59;6.10;;;4.90;;
7983;SDS011;4037;47.980;10.172;2023-02-26T07:43:25;5.87;;;3.57;;
7983;SDS011;4037;47.980;10.172;2023-02-26T07:45:51;3.33;;;2.80;;
7983;SDS011;4037;47.980;10.172;2023-02-26T07:48:18;7.77;;;3.80;;
7983;SDS011;4037;47.980;10.172;2023-02-26T07:50:45;5.53;;;4.23;;
7983;SDS011;4037;47.980;10.172;2023-02-26T07:53:11;5.60;;;3.60;;
7983;SDS011;4037;47.980;10.172;2023-02-26T07:55:37;5.13;;;3.53;;
7983;SDS011;4037;47.980;10.172;2023-02-26T07:58:03;4.53;;;3.53;;
7983;SDS011;4037;47.980;10.172;2023-02-26T08:00:29;6.90;;;3.77;;
7983;SDS011;4037;47.980;10.172;2023-02-26T08:02:55;12.63;;;7.33;;
7983;SDS011;4037;47.980;10.172;2023-02-26T08:05:21;16.03;;;10.00;;
7983;SDS011;4037;47.980;10.172;2023-02-26T08:07:47;14.27;;;7.90;;
7983;SDS011;4037;47.980;10.172;2023-02-26T08:10:13;10.40;;;6.70;;
7983;SDS011;4037;47.980;10.172;2023-02-26T08:12:39;5.20;;;4.37;;
7983;SDS011;4037;47.980;10.172;2023-02-26T08:15:05;11.43;;;6.40;;
7983;SDS011;4037;47.980;10.172;2023-02-26T08:17:31;10.63;;;5.10;;
7983;SDS011;4037;47.980;10.172;2023-02-26T08:19:58;4.70;;;3.23;;
7983;SDS011;4037;47.980;10.172;2023-02-26T08:22:23;4.33;;;2.90;;
7983;SDS011;4037;47.980;10.172;2023-02-26T08:24:49;8.13;;;4.00;;
7983;SDS011;4037;47.980;10.172;2023-02-26T08:27:15;5.60;;;3.57;;
7983;SDS011;4037;47.980;10.172;2023-02-26T08:29:41;16.47;;;8.63;;
7983;SDS011;4037;47.980;10.172;2023-02-26T08:32:10;14.10;;;8.07;;
7983;SDS011;4037;47.980;10.172;2023-02-26T08:34:36;12.97;;;6.57;;
7983;SDS011;4037;47.980;10.172;2023-02-26T08:37:02;6.90;;;3.77;;
7983;SDS011;4037;47.980;10.172;2023-02-26T08:39:28;2.80;;;2.50;;
7983;SDS011;4037;47.980;10.172;2023-02-26T08:41:57;4.57;;;3.03;;
7983;SDS011;4037;47.980;10.172;2023-02-26T08:44:23;6.30;;;3.43;;
7983;SDS011;4037;47.980;10.172;2023-02-26T08:46:49;3.47;;;3.17;;
7983;SDS011;4037;47.980;10.172;2023-02-26T08:49:14;3.80;;;2.60;;
7983;SDS011;4037;47.980;10.172;2023-02-26T08:51:40;4.00;;;2.93;;
7983;SDS011;4037;47.980;10.172;2023-02-26T08:54:06;3.50;;;2.70;;
7983;SDS011;4037;47.980;10.172;2023-02-26T08:56:33;3.83;;;2.87;;
7983;SDS011;4037;47.980;10.172;2023-02-26T08:58:59;4.10;;;2.57;;
7983;SDS011;4037;47.980;10.172;2023-02-26T09:01:25;3.53;;;3.03;;
7983;SDS011;4037;47.980;10.172;2023-02-26T09:03:51;9.70;;;5.20;;
7983;SDS011;4037;47.980;10.172;2023-02-26T09:06:17;3.93;;;3.13;;
7983;SDS011;4037;47.980;10.172;2023-02-26T09:08:43;4.67;;;2.83;;
7983;SDS011;4037;47.980;10.172;2023-02-26T09:11:09;3.73;;;2.87;;
7983;SDS011;4037;47.980;10.172;2023-02-26T09:13:36;4.00;;;2.97;;
7983;SDS011;4037;47.980;10.172;2023-02-26T09:16:02;3.60;;;3.23;;
7983;SDS011;4037;47.980;10.172;2023-02-26T09:18:28;7.23;;;3.60;;
7983;SDS011;4037;47.980;10.172;2023-02-26T09:20:54;2.80;;;2.47;;
7983;SDS011;4037;47.980;10.172;2023-02-26T09:23:20;2.93;;;2.63;;
7983;SDS011;4037;47.980;10.172;2023-02-26T09:25:50;3.17;;;2.67;;
7983;SDS011;4037;47.980;10.172;2023-02-26T09:28:16;2.70;;;2.50;;
7983;SDS011;4037;47.980;10.172;2023-02-26T09:30:42;3.00;;;2.70;;
7983;SDS011;4037;47.980;10.172;2023-02-26T09:33:08;6.00;;;3.10;;
7983;SDS011;4037;47.980;10.172;2023-02-26T09:35:34;4.97;;;2.60;;
7983;SDS011;4037;47.980;10.172;2023-02-26T09:38:00;3.30;;;2.90;;
7983;SDS011;4037;47.980;10.172;2023-02-26T09:43:04;2.93;;;2.47;;
7983;SDS011;4037;47.980;10.172;2023-02-26T09:45:32;2.73;;;2.53;;
7983;SDS011;4037;47.980;10.172;2023-02-26T09:48:00;3.47;;;3.00;;
7983;SDS011;4037;47.980;10.172;2023-02-26T09:50:40;3.60;;;2.80;;
7983;SDS011;4037;47.980;10.172;2023-02-26T09:53:19;3.00;;;2.37;;
7983;SDS011;4037;47.980;10.172;2023-02-26T09:55:47;2.67;;;2.47;;
7983;SDS011;4037;47.980;10.172;2023-02-26T09:58:30;6.13;;;3.17;;
7983;SDS011;4037;47.980;10.172;2023-02-26T10:09:19;3.77;;;3.20;;
7983;SDS011;4037;47.980;10.172;2023-02-26T10:11:30;5.80;;;2.77;;
7983;SDS011;4037;47.980;10.172;2023-02-26T10:14:02;7.00;;;3.77;;
7983;SDS011;4037;47.980;10.172;2023-02-26T10:16:32;9.27;;;4.33;;
7983;SDS011;4037;47.980;10.172;2023-02-26T10:19:04;7.23;;;2.90;;
7983;SDS011;4037;47.980;10.172;2023-02-26T10:21:34;3.00;;;2.70;;
7983;SDS011;4037;47.980;10.172;2023-02-26T10:24:07;7.17;;;4.10;;
7983;SDS011;4037;47.980;10.172;2023-02-26T10:26:39;6.70;;;4.20;;
7983;SDS011;4037;47.980;10.172;2023-02-26T10:36:46;4.80;;;3.50;;
7983;SDS011;4037;47.980;10.172;2023-02-26T10:41:41;4.10;;;3.13;;
7983;SDS011;4037;47.980;10.172;2023-02-26T10:44:16;4.13;;;2.90;;
7983;SDS011;4037;47.980;10.172;2023-02-26T10:52:10;4.87;;;4.10;;
7983;SDS011;4037;47.980;10.172;2023-02-26T10:54:39;4.80;;;4.40;;
7983;SDS011;4037;47.980;10.172;2023-02-26T10:57:08;5.50;;;3.60;;
7983;SDS011;4037;47.980;10.172;2023-02-26T10:59:39;4.73;;;4.10;;
7983;SDS011;4037;47.980;10.172;2023-02-26T11:02:10;4.33;;;3.93;;
7983;SDS011;4037;47.980;10.172;2023-02-26T11:04:42;4.20;;;3.80;;
7983;SDS011;4037;47.980;10.172;2023-02-26T11:07:08;4.67;;;4.03;;
7983;SDS011;4037;47.980;10.172;2023-02-26T11:09:35;3.60;;;3.30;;
7983;SDS011;4037;47.980;10.172;2023-02-26T11:14:38;4.07;;;3.77;;
7983;SDS011;4037;47.980;10.172;2023-02-26T11:17:38;4.13;;;3.70;;
7983;SDS011;4037;47.980;10.172;2023-02-26T11:22:28;6.03;;;5.30;;
7983;SDS011;4037;47.980;10.172;2023-02-26T11:24:54;5.00;;;4.50;;
7983;SDS011;4037;47.980;10.172;2023-02-26T11:27:24;4.97;;;3.53;;
7983;SDS011;4037;47.980;10.172;2023-02-26T11:29:55;4.87;;;4.20;;
7983;SDS011;4037;47.980;10.172;2023-02-26T11:32:22;4.40;;;4.00;;
7983;SDS011;4037;47.980;10.172;2023-02-26T11:34:50;4.80;;;4.27;;
7983;SDS011;4037;47.980;10.172;2023-02-26T11:37:17;3.60;;;3.30;;
7983;SDS011;4037;47.980;10.172;2023-02-26T11:39:44;4.33;;;3.93;;
7983;SDS011;4037;47.980;10.172;2023-02-26T11:42:10;4.70;;;4.30;;
7983;SDS011;4037;47.980;10.172;2023-02-26T11:44:37;4.87;;;4.47;;
7983;SDS011;4037;47.980;10.172;2023-02-26T11:47:05;4.70;;;4.23;;
7983;SDS011;4037;47.980;10.172;2023-02-26T11:49:32;3.80;;;3.50;;
7983;SDS011;4037;47.980;10.172;2023-02-26T11:54:37;3.93;;;3.53;;
7983;SDS011;4037;47.980;10.172;2023-02-26T11:57:05;4.43;;;4.03;;
7983;SDS011;4037;47.980;10.172;2023-02-26T11:59:32;4.60;;;4.20;;
7983;SDS011;4037;47.980;10.172;2023-02-26T12:02:04;7.60;;;5.77;;
7983;SDS011;4037;47.980;10.172;2023-02-26T12:04:37;6.60;;;3.90;;
7983;SDS011;4037;47.980;10.172;2023-02-26T12:07:07;3.50;;;3.20;;
7983;SDS011;4037;47.980;10.172;2023-02-26T12:09:36;3.63;;;3.33;;
7983;SDS011;4037;47.980;10.172;2023-02-26T12:12:12;3.47;;;3.17;;
7983;SDS011;4037;47.980;10.172;2023-02-26T12:17:17;4.57;;;3.40;;
7983;SDS011;4037;47.980;10.172;2023-02-26T12:22:16;7.00;;;3.40;;
7983;SDS011;4037;47.980;10.172;2023-02-26T12:27:42;3.80;;;3.50;;
7983;SDS011;4037;47.980;10.172;2023-02-26T12:32:42;6.03;;;3.77;;
7983;SDS011;4037;47.980;10.172;2023-02-26T12:50:42;3.23;;;2.93;;
7983;SDS011;4037;47.980;10.172;2023-02-26T12:53:20;4.37;;;3.97;;
7983;SDS011;4037;47.980;10.172;2023-02-26T12:55:59;4.20;;;3.60;;
7983;SDS011;4037;47.980;10.172;2023-02-26T13:04:06;4.17;;;3.87;;
7983;SDS011;4037;47.980;10.172;2023-02-26T13:14:21;4.40;;;3.40;;
7983;SDS011;4037;47.980;10.172;2023-02-26T13:21:55;4.03;;;3.63;;
7983;SDS011;4037;47.980;10.172;2023-02-26T13:25:04;6.63;;;4.63;;
7983;SDS011;4037;47.980;10.172;2023-02-26T13:27:11;4.90;;;4.07;;
7983;SDS011;4037;47.980;10.172;2023-02-26T13:29:44;5.77;;;4.70;;
7983;SDS011;4037;47.980;10.172;2023-02-26T13:32:19;4.80;;;4.30;;
7983;SDS011;4037;47.980;10.172;2023-02-26T13:37:25;4.70;;;4.10;;
7983;SDS011;4037;47.980;10.172;2023-02-26T13:42:59;6.73;;;4.70;;
7983;SDS011;4037;47.980;10.172;2023-02-26T13:56:12;5.47;;;3.97;;
7983;SDS011;4037;47.980;10.172;2023-02-26T13:58:40;7.30;;;5.00;;
7983;SDS011;4037;47.980;10.172;2023-02-26T14:03:40;3.67;;;3.37;;
7983;SDS011;4037;47.980;10.172;2023-02-26T14:06:08;5.33;;;4.30;;
7983;SDS011;4037;47.980;10.172;2023-02-26T14:11:13;7.07;;;4.60;;
7983;SDS011;4037;47.980;10.172;2023-02-26T14:16:33;3.33;;;2.87;;
7983;SDS011;4037;47.980;10.172;2023-02-26T14:19:04;3.07;;;2.80;;
7983;SDS011;4037;47.980;10.172;2023-02-26T14:21:34;3.00;;;2.20;;
7983;SDS011;4037;47.980;10.172;2023-02-26T14:24:05;3.40;;;2.80;;
7983;SDS011;4037;47.980;10.172;2023-02-26T14:26:36;5.60;;;4.80;;
7983;SDS011;4037;47.980;10.172;2023-02-26T14:29:13;5.33;;;3.53;;
7983;SDS011;4037;47.980;10.172;2023-02-26T14:31:46;3.67;;;3.37;;
7983;SDS011;4037;47.980;10.172;2023-02-26T14:34:16;3.93;;;3.47;;
7983;SDS011;4037;47.980;10.172;2023-02-26T14:36:46;3.50;;;3.20;;
7983;SDS011;4037;47.980;10.172;2023-02-26T14:39:17;3.87;;;3.23;;
7983;SDS011;4037;47.980;10.172;2023-02-26T14:41:47;4.60;;;2.57;;
7983;SDS011;4037;47.980;10.172;2023-02-26T14:44:15;2.70;;;2.50;;
7983;SDS011;4037;47.980;10.172;2023-02-26T14:46:44;2.57;;;2.23;;
7983;SDS011;4037;47.980;10.172;2023-02-26T14:49:14;3.17;;;2.07;;
7983;SDS011;4037;47.980;10.172;2023-02-26T15:10:22;3.60;;;3.27;;
7983;SDS011;4037;47.980;10.172;2023-02-26T15:12:32;3.67;;;3.30;;
7983;SDS011;4037;47.980;10.172;2023-02-26T15:20:29;3.43;;;2.90;;
7983;SDS011;4037;47.980;10.172;2023-02-26T15:23:02;3.17;;;2.80;;
7983;SDS011;4037;47.980;10.172;2023-02-26T15:25:34;5.47;;;4.20;;
7983;SDS011;4037;47.980;10.172;2023-02-26T15:28:01;6.20;;;3.97;;
7983;SDS011;4037;47.980;10.172;2023-02-26T15:30:29;12.80;;;4.00;;
7983;SDS011;4037;47.980;10.172;2023-02-26T15:32:59;5.33;;;4.10;;
7983;SDS011;4037;47.980;10.172;2023-02-26T15:35:26;4.37;;;3.73;;
7983;SDS011;4037;47.980;10.172;2023-02-26T15:37:54;4.73;;;3.93;;
7983;SDS011;4037;47.980;10.172;2023-02-26T15:40:21;3.87;;;2.90;;
7983;SDS011;4037;47.980;10.172;2023-02-26T15:42:48;4.23;;;3.50;;
7983;SDS011;4037;47.980;10.172;2023-02-26T15:45:21;3.33;;;2.87;;
7983;SDS011;4037;47.980;10.172;2023-02-26T15:47:50;4.47;;;3.10;;
7983;SDS011;4037;47.980;10.172;2023-02-26T15:50:25;3.80;;;2.80;;
7983;SDS011;4037;47.980;10.172;2023-02-26T15:52:53;3.77;;;2.90;;
7983;SDS011;4037;47.980;10.172;2023-02-26T15:55:20;3.83;;;3.33;;
7983;SDS011;4037;47.980;10.172;2023-02-26T15:57:46;4.07;;;3.10;;
7983;SDS011;4037;47.980;10.172;2023-02-26T16:00:18;3.43;;;3.00;;
7983;SDS011;4037;47.980;10.172;2023-02-26T16:02:54;3.47;;;2.83;;
7983;SDS011;4037;47.980;10.172;2023-02-26T16:05:21;3.13;;;2.80;;
7983;SDS011;4037;47.980;10.172;2023-02-26T16:07:47;3.07;;;2.77;;
7983;SDS011;4037;47.980;10.172;2023-02-26T16:10:33;2.93;;;2.70;;
7983;SDS011;4037;47.980;10.172;2023-02-26T16:13:02;3.73;;;2.97;;
7983;SDS011;4037;47.980;10.172;2023-02-26T16:15:33;3.73;;;2.90;;
7983;SDS011;4037;47.980;10.172;2023-02-26T16:18:00;3.47;;;3.17;;
7983;SDS011;4037;47.980;10.172;2023-02-26T16:20:28;4.83;;;3.20;;
7983;SDS011;4037;47.980;10.172;2023-02-26T16:22:58;4.47;;;3.67;;
7983;SDS011;4037;47.980;10.172;2023-02-26T16:25:29;8.20;;;3.90;;
7983;SDS011;4037;47.980;10.172;2023-02-26T16:27:57;10.87;;;6.20;;
7983;SDS011;4037;47.980;10.172;2023-02-26T16:30:26;8.77;;;5.30;;
7983;SDS011;4037;47.980;10.172;2023-02-26T16:32:54;4.93;;;3.83;;
7983;SDS011;4037;47.980;10.172;2023-02-26T16:35:21;4.87;;;3.37;;
7983;SDS011;4037;47.980;10.172;2023-02-26T16:37:50;4.77;;;3.97;;
7983;SDS011;4037;47.980;10.172;2023-02-26T16:46:11;8.30;;;5.87;;
7983;SDS011;4037;47.980;10.172;2023-02-26T16:48:13;4.63;;;3.70;;
7983;SDS011;4037;47.980;10.172;2023-02-26T16:50:40;13.33;;;7.03;;
7983;SDS011;4037;47.980;10.172;2023-02-26T16:53:14;13.40;;;7.40;;
7983;SDS011;4037;47.980;10.172;2023-02-26T16:55:40;9.03;;;6.13;;
7983;SDS011;4037;47.980;10.172;2023-02-26T16:58:09;6.80;;;4.37;;
7983;SDS011;4037;47.980;10.172;2023-02-26T17:00:37;4.10;;;3.17;;
7983;SDS011;4037;47.980;10.172;2023-02-26T17:03:10;2.97;;;2.53;;
7983;SDS011;4037;47.980;10.172;2023-02-26T17:05:38;3.40;;;2.33;;
7983;SDS011;4037;47.980;10.172;2023-02-26T17:08:13;3.27;;;2.90;;
7983;SDS011;4037;47.980;10.172;2023-02-26T17:10:47;3.17;;;2.87;;
7983;SDS011;4037;47.980;10.172;2023-02-26T17:13:23;3.03;;;2.67;;
7983;SDS011;4037;47.980;10.172;2023-02-26T17:15:49;3.40;;;3.10;;
7983;SDS011;4037;47.980;10.172;2023-02-26T17:18:18;3.87;;;2.87;;
7983;SDS011;4037;47.980;10.172;2023-02-26T17:20:44;4.40;;;3.67;;
7983;SDS011;4037;47.980;10.172;2023-02-26T17:23:10;3.87;;;3.13;;
7983;SDS011;4037;47.980;10.172;2023-02-26T17:25:38;3.53;;;2.67;;
7983;SDS011;4037;47.980;10.172;2023-02-26T17:28:05;3.40;;;3.10;;
7983;SDS011;4037;47.980;10.172;2023-02-26T17:30:32;3.80;;;3.00;;
7983;SDS011;4037;47.980;10.172;2023-02-26T17:32:59;3.47;;;2.90;;
7983;SDS011;4037;47.980;10.172;2023-02-26T17:35:25;4.17;;;3.27;;
7983;SDS011;4037;47.980;10.172;2023-02-26T17:37:53;3.40;;;3.10;;
7983;SDS011;4037;47.980;10.172;2023-02-26T17:40:24;3.93;;;2.97;;
7983;SDS011;4037;47.980;10.172;2023-02-26T17:42:50;5.40;;;3.30;;
7983;SDS011;4037;47.980;10.172;2023-02-26T17:45:16;3.13;;;2.60;;
7983;SDS011;4037;47.980;10.172;2023-02-26T17:47:43;3.27;;;2.73;;
7983;SDS011;4037;47.980;10.172;2023-02-26T17:52:43;2.70;;;2.50;;
7983;SDS011;4037;47.980;10.172;2023-02-26T17:55:09;4.03;;;3.57;;
7983;SDS011;4037;47.980;10.172;2023-02-26T17:57:35;3.87;;;2.73;;
7983;SDS011;4037;47.980;10.172;2023-02-26T18:00:01;5.60;;;3.20;;
7983;SDS011;4037;47.980;10.172;2023-02-26T18:02:29;3.00;;;2.80;;
7983;SDS011;4037;47.980;10.172;2023-02-26T18:04:55;3.50;;;2.93;;
7983;SDS011;4037;47.980;10.172;2023-02-26T18:07:21;4.13;;;3.27;;